sensor_id;sensor_type;location;lat;lon;timestamp;temperature;humidity
33105;DHT22;19476;51.448;6.674;2024-03-22T00:01:51;17.20;52.20
33105;DHT22;19476;51.448;6.674;2024-03-22T00:04:17;17.20;52.20
33105;DHT22;19476;51.448;6.674;2024-03-22T00:06:44;17.20;52.20
33105;DHT22;19476;51.448;6.674;2024-03-22T00:09:10;17.20;52.30
33105;DHT22;19476;51.448;6.674;2024-03-22T00:11:36;17.20;52.20
33105;DHT22;19476;51.448;6.674;2024-03-22T00:14:02;17.30;52.40
33105;DHT22;19476;51.448;6.674;2024-03-22T00:16:29;17.20;52.40
33105;DHT22;19476;51.448;6.674;2024-03-22T00:18:54;17.20;52.30
33105;DHT22;19476;51.448;6.674;2024-03-22T00:21:21;17.30;52.40
33105;DHT22;19476;51.448;6.674;2024-03-22T00:23:47;17.20;52.40
33105;DHT22;19476;51.448;6.674;2024-03-22T00:26:13;17.20;52.40
33105;DHT22;19476;51.448;6.674;2024-03-22T00:28:39;17.20;52.50
33105;DHT22;19476;51.448;6.674;2024-03-22T00:31:04;17.20;52.40
33105;DHT22;19476;51.448;6.674;2024-03-22T00:33:30;17.20;52.50
33105;DHT22;19476;51.448;6.674;2024-03-22T00:35:56;17.20;52.60
33105;DHT22;19476;51.448;6.674;2024-03-22T00:38:21;17.20;52.80
33105;DHT22;19476;51.448;6.674;2024-03-22T00:40:47;17.10;52.80
33105;DHT22;19476;51.448;6.674;2024-03-22T00:43:13;17.10;52.90
33105;DHT22;19476;51.448;6.674;2024-03-22T00:45:39;17.10;52.90
33105;DHT22;19476;51.448;6.674;2024-03-22T00:48:05;17.10;53.00
33105;DHT22;19476;51.448;6.674;2024-03-22T00:50:30;17.10;53.00
33105;DHT22;19476;51.448;6.674;2024-03-22T00:52:56;17.10;52.90
33105;DHT22;19476;51.448;6.674;2024-03-22T00:55:23;17.10;53.10
33105;DHT22;19476;51.448;6.674;2024-03-22T00:57:49;17.20;53.20
33105;DHT22;19476;51.448;6.674;2024-03-22T01:00:15;17.20;53.20
33105;DHT22;19476;51.448;6.674;2024-03-22T01:02:41;17.20;53.30
33105;DHT22;19476;51.448;6.674;2024-03-22T01:05:08;17.10;53.20
33105;DHT22;19476;51.448;6.674;2024-03-22T01:07:35;17.10;53.20
33105;DHT22;19476;51.448;6.674;2024-03-22T01:10:00;17.10;53.30
33105;DHT22;19476;51.448;6.674;2024-03-22T01:12:26;17.20;53.40
33105;DHT22;19476;51.448;6.674;2024-03-22T01:14:52;17.20;53.40
33105;DHT22;19476;51.448;6.674;2024-03-22T01:17:17;17.10;53.40
33105;DHT22;19476;51.448;6.674;2024-03-22T01:19:43;17.20;53.50
33105;DHT22;19476;51.448;6.674;2024-03-22T01:22:09;17.20;53.50
33105;DHT22;19476;51.448;6.674;2024-03-22T01:24:35;17.20;53.60
33105;DHT22;19476;51.448;6.674;2024-03-22T01:27:00;17.10;53.50
33105;DHT22;19476;51.448;6.674;2024-03-22T01:29:26;17.20;53.70
33105;DHT22;19476;51.448;6.674;2024-03-22T01:31:56;17.10;53.80
33105;DHT22;19476;51.448;6.674;2024-03-22T01:34:21;17.10;53.90
33105;DHT22;19476;51.448;6.674;2024-03-22T01:36:47;17.10;53.90
33105;DHT22;19476;51.448;6.674;2024-03-22T01:39:12;17.10;53.90
33105;DHT22;19476;51.448;6.674;2024-03-22T01:41:40;17.10;54.00
33105;DHT22;19476;51.448;6.674;2024-03-22T01:44:05;17.10;54.00
33105;DHT22;19476;51.448;6.674;2024-03-22T01:46:31;17.10;54.00
33105;DHT22;19476;51.448;6.674;2024-03-22T01:48:57;17.10;54.00
33105;DHT22;19476;51.448;6.674;2024-03-22T01:51:23;17.10;54.00
33105;DHT22;19476;51.448;6.674;2024-03-22T01:53:49;17.10;54.00
33105;DHT22;19476;51.448;6.674;2024-03-22T01:56:15;17.10;54.00
33105;DHT22;19476;51.448;6.674;2024-03-22T01:58:41;17.10;54.10
33105;DHT22;19476;51.448;6.674;2024-03-22T02:01:07;17.10;54.20
33105;DHT22;19476;51.448;6.674;2024-03-22T02:03:33;17.10;54.10
33105;DHT22;19476;51.448;6.674;2024-03-22T02:05:59;17.10;54.20
33105;DHT22;19476;51.448;6.674;2024-03-22T02:08:24;17.00;54.20
33105;DHT22;19476;51.448;6.674;2024-03-22T02:10:50;17.00;54.40
33105;DHT22;19476;51.448;6.674;2024-03-22T02:13:16;17.00;54.50
33105;DHT22;19476;51.448;6.674;2024-03-22T02:15:42;17.00;54.60
33105;DHT22;19476;51.448;6.674;2024-03-22T02:18:07;16.90;54.50
33105;DHT22;19476;51.448;6.674;2024-03-22T02:20:35;16.90;54.70
33105;DHT22;19476;51.448;6.674;2024-03-22T02:23:01;16.90;55.00
33105;DHT22;19476;51.448;6.674;2024-03-22T02:25:27;16.90;54.80
33105;DHT22;19476;51.448;6.674;2024-03-22T02:27:52;16.90;54.90
33105;DHT22;19476;51.448;6.674;2024-03-22T02:30:18;16.90;55.00
33105;DHT22;19476;51.448;6.674;2024-03-22T02:32:44;16.90;55.10
33105;DHT22;19476;51.448;6.674;2024-03-22T02:35:10;16.90;55.10
33105;DHT22;19476;51.448;6.674;2024-03-22T02:37:35;16.90;55.20
33105;DHT22;19476;51.448;6.674;2024-03-22T02:40:01;16.90;55.20
33105;DHT22;19476;51.448;6.674;2024-03-22T02:42:27;16.90;55.20
33105;DHT22;19476;51.448;6.674;2024-03-22T02:44:53;16.90;55.30
33105;DHT22;19476;51.448;6.674;2024-03-22T02:47:18;16.90;55.30
33105;DHT22;19476;51.448;6.674;2024-03-22T02:49:45;16.90;55.40
33105;DHT22;19476;51.448;6.674;2024-03-22T02:52:10;16.80;55.30
33105;DHT22;19476;51.448;6.674;2024-03-22T02:54:36;16.80;55.30
33105;DHT22;19476;51.448;6.674;2024-03-22T02:57:02;16.90;55.40
33105;DHT22;19476;51.448;6.674;2024-03-22T02:59:28;16.90;55.50
33105;DHT22;19476;51.448;6.674;2024-03-22T03:01:54;16.90;55.60
33105;DHT22;19476;51.448;6.674;2024-03-22T03:04:20;16.90;55.50
33105;DHT22;19476;51.448;6.674;2024-03-22T03:06:45;16.90;55.60
33105;DHT22;19476;51.448;6.674;2024-03-22T03:09:12;16.90;55.60
33105;DHT22;19476;51.448;6.674;2024-03-22T03:11:40;16.90;55.70
33105;DHT22;19476;51.448;6.674;2024-03-22T03:14:06;16.90;55.90
33105;DHT22;19476;51.448;6.674;2024-03-22T03:16:32;16.80;55.70
33105;DHT22;19476;51.448;6.674;2024-03-22T03:18:58;16.80;55.80
33105;DHT22;19476;51.448;6.674;2024-03-22T03:21:24;16.80;55.80
33105;DHT22;19476;51.448;6.674;2024-03-22T03:23:50;16.80;55.90
33105;DHT22;19476;51.448;6.674;2024-03-22T03:26:16;16.80;56.00
33105;DHT22;19476;51.448;6.674;2024-03-22T03:28:41;16.70;55.90
33105;DHT22;19476;51.448;6.674;2024-03-22T03:31:07;16.70;56.00
33105;DHT22;19476;51.448;6.674;2024-03-22T03:33:33;16.80;56.00
33105;DHT22;19476;51.448;6.674;2024-03-22T03:35:59;16.70;55.90
33105;DHT22;19476;51.448;6.674;2024-03-22T03:38:24;16.70;56.00
33105;DHT22;19476;51.448;6.674;2024-03-22T03:40:50;16.70;56.10
33105;DHT22;19476;51.448;6.674;2024-03-22T03:43:16;16.70;56.10
33105;DHT22;19476;51.448;6.674;2024-03-22T03:45:42;16.70;56.20
33105;DHT22;19476;51.448;6.674;2024-03-22T03:48:07;16.70;56.30
33105;DHT22;19476;51.448;6.674;2024-03-22T03:50:33;16.70;56.30
33105;DHT22;19476;51.448;6.674;2024-03-22T03:52:58;16.60;56.30
33105;DHT22;19476;51.448;6.674;2024-03-22T03:55:26;16.60;56.30
33105;DHT22;19476;51.448;6.674;2024-03-22T03:57:52;16.60;56.50
33105;DHT22;19476;51.448;6.674;2024-03-22T04:00:19;16.60;56.60
33105;DHT22;19476;51.448;6.674;2024-03-22T04:02:45;16.60;56.80
33105;DHT22;19476;51.448;6.674;2024-03-22T04:05:11;16.60;56.70
33105;DHT22;19476;51.448;6.674;2024-03-22T04:07:36;16.60;56.80
33105;DHT22;19476;51.448;6.674;2024-03-22T04:10:02;16.60;56.90
33105;DHT22;19476;51.448;6.674;2024-03-22T04:12:28;16.60;56.80
33105;DHT22;19476;51.448;6.674;2024-03-22T04:14:54;16.60;56.80
33105;DHT22;19476;51.448;6.674;2024-03-22T04:17:20;16.60;56.90
33105;DHT22;19476;51.448;6.674;2024-03-22T04:19:46;16.60;57.00
33105;DHT22;19476;51.448;6.674;2024-03-22T04:22:12;16.60;57.00
33105;DHT22;19476;51.448;6.674;2024-03-22T04:24:37;16.50;57.10
33105;DHT22;19476;51.448;6.674;2024-03-22T04:27:03;16.60;57.20
33105;DHT22;19476;51.448;6.674;2024-03-22T04:29:30;16.50;57.10
33105;DHT22;19476;51.448;6.674;2024-03-22T04:31:56;16.50;57.20
33105;DHT22;19476;51.448;6.674;2024-03-22T04:34:21;16.50;57.20
33105;DHT22;19476;51.448;6.674;2024-03-22T04:36:47;16.50;57.20
33105;DHT22;19476;51.448;6.674;2024-03-22T04:39:12;16.50;57.20
33105;DHT22;19476;51.448;6.674;2024-03-22T04:41:39;16.50;57.20
33105;DHT22;19476;51.448;6.674;2024-03-22T04:44:05;16.50;57.20
33105;DHT22;19476;51.448;6.674;2024-03-22T04:46:30;16.60;57.30
33105;DHT22;19476;51.448;6.674;2024-03-22T04:48:56;16.60;57.20
33105;DHT22;19476;51.448;6.674;2024-03-22T04:51:22;16.50;57.10
33105;DHT22;19476;51.448;6.674;2024-03-22T04:53:48;16.50;57.10
33105;DHT22;19476;51.448;6.674;2024-03-22T04:56:13;16.60;57.20
33105;DHT22;19476;51.448;6.674;2024-03-22T04:58:39;16.60;57.20
33105;DHT22;19476;51.448;6.674;2024-03-22T05:01:05;16.60;57.10
33105;DHT22;19476;51.448;6.674;2024-03-22T05:03:31;16.60;57.10
33105;DHT22;19476;51.448;6.674;2024-03-22T05:05:56;16.60;57.10
33105;DHT22;19476;51.448;6.674;2024-03-22T05:08:23;16.60;57.10
33105;DHT22;19476;51.448;6.674;2024-03-22T05:10:48;16.60;57.00
33105;DHT22;19476;51.448;6.674;2024-03-22T05:13:14;16.60;57.00
33105;DHT22;19476;51.448;6.674;2024-03-22T05:15:40;16.70;57.10
33105;DHT22;19476;51.448;6.674;2024-03-22T05:18:05;16.50;56.90
33105;DHT22;19476;51.448;6.674;2024-03-22T05:20:31;16.70;56.90
33105;DHT22;19476;51.448;6.674;2024-03-22T05:22:58;16.70;56.90
33105;DHT22;19476;51.448;6.674;2024-03-22T05:25:24;16.80;56.90
33105;DHT22;19476;51.448;6.674;2024-03-22T05:27:51;16.80;56.80
33105;DHT22;19476;51.448;6.674;2024-03-22T05:30:17;16.80;56.70
33105;DHT22;19476;51.448;6.674;2024-03-22T05:32:43;16.80;56.60
33105;DHT22;19476;51.448;6.674;2024-03-22T05:35:09;16.80;56.60
33105;DHT22;19476;51.448;6.674;2024-03-22T05:37:35;16.80;56.50
33105;DHT22;19476;51.448;6.674;2024-03-22T05:40:02;16.90;56.50
33105;DHT22;19476;51.448;6.674;2024-03-22T05:42:29;16.90;56.50
33105;DHT22;19476;51.448;6.674;2024-03-22T05:44:55;16.90;56.90
33105;DHT22;19476;51.448;6.674;2024-03-22T05:47:21;16.90;56.30
33105;DHT22;19476;51.448;6.674;2024-03-22T05:49:47;16.90;56.30
33105;DHT22;19476;51.448;6.674;2024-03-22T05:52:13;16.90;56.20
33105;DHT22;19476;51.448;6.674;2024-03-22T05:54:39;16.90;56.20
33105;DHT22;19476;51.448;6.674;2024-03-22T05:57:05;16.90;56.20
33105;DHT22;19476;51.448;6.674;2024-03-22T05:59:31;16.90;56.10
33105;DHT22;19476;51.448;6.674;2024-03-22T06:01:56;16.90;56.70
33105;DHT22;19476;51.448;6.674;2024-03-22T06:04:22;17.00;56.10
33105;DHT22;19476;51.448;6.674;2024-03-22T06:06:49;17.00;56.00
33105;DHT22;19476;51.448;6.674;2024-03-22T06:09:15;17.00;56.00
33105;DHT22;19476;51.448;6.674;2024-03-22T06:11:52;17.00;56.00
33105;DHT22;19476;51.448;6.674;2024-03-22T06:14:18;17.00;56.00
33105;DHT22;19476;51.448;6.674;2024-03-22T06:16:44;17.00;55.90
33105;DHT22;19476;51.448;6.674;2024-03-22T06:19:09;17.00;55.80
33105;DHT22;19476;51.448;6.674;2024-03-22T06:21:35;17.00;55.70
33105;DHT22;19476;51.448;6.674;2024-03-22T06:24:01;17.10;55.70
33105;DHT22;19476;51.448;6.674;2024-03-22T06:26:27;17.10;55.70
33105;DHT22;19476;51.448;6.674;2024-03-22T06:28:53;17.10;55.60
33105;DHT22;19476;51.448;6.674;2024-03-22T06:31:18;17.10;55.50
33105;DHT22;19476;51.448;6.674;2024-03-22T06:33:44;17.10;55.50
33105;DHT22;19476;51.448;6.674;2024-03-22T06:36:10;17.10;55.40
33105;DHT22;19476;51.448;6.674;2024-03-22T06:38:35;17.10;55.50
33105;DHT22;19476;51.448;6.674;2024-03-22T06:41:01;17.10;55.50
33105;DHT22;19476;51.448;6.674;2024-03-22T06:43:27;17.10;55.40
33105;DHT22;19476;51.448;6.674;2024-03-22T06:45:53;17.10;55.40
33105;DHT22;19476;51.448;6.674;2024-03-22T06:48:18;17.20;55.50
33105;DHT22;19476;51.448;6.674;2024-03-22T06:50:44;17.10;55.40
33105;DHT22;19476;51.448;6.674;2024-03-22T06:53:11;17.20;55.40
33105;DHT22;19476;51.448;6.674;2024-03-22T06:55:37;17.20;55.40
33105;DHT22;19476;51.448;6.674;2024-03-22T06:58:03;17.20;55.40
33105;DHT22;19476;51.448;6.674;2024-03-22T07:00:28;17.20;55.40
33105;DHT22;19476;51.448;6.674;2024-03-22T07:02:54;17.20;55.40
33105;DHT22;19476;51.448;6.674;2024-03-22T07:05:21;17.20;55.40
33105;DHT22;19476;51.448;6.674;2024-03-22T07:07:47;17.20;55.30
33105;DHT22;19476;51.448;6.674;2024-03-22T07:10:15;17.30;55.40
33105;DHT22;19476;51.448;6.674;2024-03-22T07:12:41;17.30;55.30
33105;DHT22;19476;51.448;6.674;2024-03-22T07:15:07;17.30;55.30
33105;DHT22;19476;51.448;6.674;2024-03-22T07:17:33;17.30;55.30
33105;DHT22;19476;51.448;6.674;2024-03-22T07:19:59;17.30;55.30
33105;DHT22;19476;51.448;6.674;2024-03-22T07:22:25;17.30;55.30
33105;DHT22;19476;51.448;6.674;2024-03-22T07:24:51;17.30;55.20
33105;DHT22;19476;51.448;6.674;2024-03-22T07:27:17;17.40;55.20
33105;DHT22;19476;51.448;6.674;2024-03-22T07:29:44;17.40;55.10
33105;DHT22;19476;51.448;6.674;2024-03-22T07:32:10;17.40;55.10
33105;DHT22;19476;51.448;6.674;2024-03-22T07:34:36;17.40;55.00
33105;DHT22;19476;51.448;6.674;2024-03-22T07:37:01;17.40;54.90
33105;DHT22;19476;51.448;6.674;2024-03-22T07:39:27;17.40;55.40
33105;DHT22;19476;51.448;6.674;2024-03-22T07:41:53;17.40;54.80
33105;DHT22;19476;51.448;6.674;2024-03-22T07:44:19;17.40;54.80
33105;DHT22;19476;51.448;6.674;2024-03-22T07:46:49;17.50;54.80
33105;DHT22;19476;51.448;6.674;2024-03-22T07:49:15;17.50;54.50
33105;DHT22;19476;51.448;6.674;2024-03-22T07:51:41;17.50;54.50
33105;DHT22;19476;51.448;6.674;2024-03-22T07:54:06;17.50;54.30
33105;DHT22;19476;51.448;6.674;2024-03-22T07:56:32;17.50;54.40
33105;DHT22;19476;51.448;6.674;2024-03-22T07:58:58;17.50;54.20
33105;DHT22;19476;51.448;6.674;2024-03-22T08:01:24;17.50;54.00
33105;DHT22;19476;51.448;6.674;2024-03-22T08:03:51;17.60;54.00
33105;DHT22;19476;51.448;6.674;2024-03-22T08:06:17;17.60;54.00
33105;DHT22;19476;51.448;6.674;2024-03-22T08:08:43;17.60;54.00
33105;DHT22;19476;51.448;6.674;2024-03-22T08:11:08;17.70;53.90
33105;DHT22;19476;51.448;6.674;2024-03-22T08:13:35;17.70;53.50
33105;DHT22;19476;51.448;6.674;2024-03-22T08:16:00;17.70;53.30
33105;DHT22;19476;51.448;6.674;2024-03-22T08:18:26;17.70;53.10
33105;DHT22;19476;51.448;6.674;2024-03-22T08:20:52;17.70;53.20
33105;DHT22;19476;51.448;6.674;2024-03-22T08:23:18;17.70;52.90
33105;DHT22;19476;51.448;6.674;2024-03-22T08:25:46;17.70;52.70
33105;DHT22;19476;51.448;6.674;2024-03-22T08:28:13;17.70;52.50
33105;DHT22;19476;51.448;6.674;2024-03-22T08:30:39;17.70;52.60
33105;DHT22;19476;51.448;6.674;2024-03-22T08:33:05;17.70;52.30
33105;DHT22;19476;51.448;6.674;2024-03-22T08:35:31;17.70;52.10
33105;DHT22;19476;51.448;6.674;2024-03-22T08:37:57;17.70;51.70
33105;DHT22;19476;51.448;6.674;2024-03-22T08:40:24;17.70;51.40
33105;DHT22;19476;51.448;6.674;2024-03-22T08:42:50;17.70;51.70
33105;DHT22;19476;51.448;6.674;2024-03-22T08:45:16;17.70;52.00
33105;DHT22;19476;51.448;6.674;2024-03-22T08:47:43;17.70;51.30
33105;DHT22;19476;51.448;6.674;2024-03-22T08:50:11;17.70;51.40
33105;DHT22;19476;51.448;6.674;2024-03-22T08:52:37;17.70;51.20
33105;DHT22;19476;51.448;6.674;2024-03-22T08:55:04;17.70;51.00
33105;DHT22;19476;51.448;6.674;2024-03-22T08:57:32;17.70;51.40
33105;DHT22;19476;51.448;6.674;2024-03-22T08:59:58;17.70;51.10
33105;DHT22;19476;51.448;6.674;2024-03-22T09:02:24;17.70;51.00
33105;DHT22;19476;51.448;6.674;2024-03-22T09:04:49;17.70;50.90
33105;DHT22;19476;51.448;6.674;2024-03-22T09:07:16;17.70;50.70
33105;DHT22;19476;51.448;6.674;2024-03-22T09:09:42;17.70;50.80
33105;DHT22;19476;51.448;6.674;2024-03-22T09:12:08;17.80;51.00
33105;DHT22;19476;51.448;6.674;2024-03-22T09:14:34;17.80;50.90
33105;DHT22;19476;51.448;6.674;2024-03-22T09:16:59;17.90;50.90
33105;DHT22;19476;51.448;6.674;2024-03-22T09:19:25;18.00;51.00
33105;DHT22;19476;51.448;6.674;2024-03-22T09:21:51;18.00;50.60
33105;DHT22;19476;51.448;6.674;2024-03-22T09:24:16;18.10;50.30
33105;DHT22;19476;51.448;6.674;2024-03-22T09:26:42;18.10;50.20
33105;DHT22;19476;51.448;6.674;2024-03-22T09:29:08;18.20;50.00
33105;DHT22;19476;51.448;6.674;2024-03-22T09:31:33;18.20;49.70
33105;DHT22;19476;51.448;6.674;2024-03-22T09:33:59;18.30;49.80
33105;DHT22;19476;51.448;6.674;2024-03-22T09:36:25;18.30;49.80
33105;DHT22;19476;51.448;6.674;2024-03-22T09:38:51;18.30;49.80
33105;DHT22;19476;51.448;6.674;2024-03-22T09:41:24;18.30;49.80
33105;DHT22;19476;51.448;6.674;2024-03-22T09:43:51;18.40;49.90
33105;DHT22;19476;51.448;6.674;2024-03-22T09:46:19;18.40;49.90
33105;DHT22;19476;51.448;6.674;2024-03-22T09:48:47;18.40;49.60
33105;DHT22;19476;51.448;6.674;2024-03-22T09:51:13;18.40;49.90
33105;DHT22;19476;51.448;6.674;2024-03-22T09:53:42;18.40;49.80
33105;DHT22;19476;51.448;6.674;2024-03-22T09:56:10;18.40;49.80
33105;DHT22;19476;51.448;6.674;2024-03-22T09:58:36;18.40;49.90
33105;DHT22;19476;51.448;6.674;2024-03-22T10:01:03;18.40;49.80
33105;DHT22;19476;51.448;6.674;2024-03-22T10:03:29;18.50;49.90
33105;DHT22;19476;51.448;6.674;2024-03-22T10:05:55;18.50;50.20
33105;DHT22;19476;51.448;6.674;2024-03-22T10:08:21;18.50;50.20
33105;DHT22;19476;51.448;6.674;2024-03-22T10:10:47;18.50;49.80
33105;DHT22;19476;51.448;6.674;2024-03-22T10:13:12;18.50;49.90
33105;DHT22;19476;51.448;6.674;2024-03-22T10:15:39;18.60;49.90
33105;DHT22;19476;51.448;6.674;2024-03-22T10:18:05;18.60;49.90
33105;DHT22;19476;51.448;6.674;2024-03-22T10:20:31;18.60;49.70
33105;DHT22;19476;51.448;6.674;2024-03-22T10:22:59;18.60;49.80
33105;DHT22;19476;51.448;6.674;2024-03-22T10:25:28;18.60;49.80
33105;DHT22;19476;51.448;6.674;2024-03-22T10:27:57;18.70;49.80
33105;DHT22;19476;51.448;6.674;2024-03-22T10:30:25;18.70;50.20
33105;DHT22;19476;51.448;6.674;2024-03-22T10:32:51;18.70;49.50
33105;DHT22;19476;51.448;6.674;2024-03-22T10:35:17;18.70;49.70
33105;DHT22;19476;51.448;6.674;2024-03-22T10:37:43;18.70;49.70
33105;DHT22;19476;51.448;6.674;2024-03-22T10:40:10;18.80;49.90
33105;DHT22;19476;51.448;6.674;2024-03-22T10:42:38;18.80;49.60
33105;DHT22;19476;51.448;6.674;2024-03-22T10:45:05;18.80;49.40
33105;DHT22;19476;51.448;6.674;2024-03-22T10:47:33;18.90;49.50
33105;DHT22;19476;51.448;6.674;2024-03-22T10:53:14;18.90;48.90
33105;DHT22;19476;51.448;6.674;2024-03-22T10:55:30;19.00;49.00
33105;DHT22;19476;51.448;6.674;2024-03-22T10:57:58;19.00;48.60
33105;DHT22;19476;51.448;6.674;2024-03-22T11:00:31;19.00;48.50
33105;DHT22;19476;51.448;6.674;2024-03-22T11:02:57;19.00;48.50
33105;DHT22;19476;51.448;6.674;2024-03-22T11:05:23;19.00;48.80
33105;DHT22;19476;51.448;6.674;2024-03-22T11:08:03;19.00;48.70
33105;DHT22;19476;51.448;6.674;2024-03-22T11:10:34;19.00;48.60
33105;DHT22;19476;51.448;6.674;2024-03-22T11:13:04;19.10;48.70
33105;DHT22;19476;51.448;6.674;2024-03-22T11:15:30;19.10;48.60
33105;DHT22;19476;51.448;6.674;2024-03-22T11:17:59;19.10;48.70
33105;DHT22;19476;51.448;6.674;2024-03-22T11:20:26;19.10;48.50
33105;DHT22;19476;51.448;6.674;2024-03-22T11:22:52;19.10;48.50
33105;DHT22;19476;51.448;6.674;2024-03-22T11:25:18;19.00;48.20
33105;DHT22;19476;51.448;6.674;2024-03-22T11:27:45;19.00;48.20
33105;DHT22;19476;51.448;6.674;2024-03-22T11:30:11;18.90;48.10
33105;DHT22;19476;51.448;6.674;2024-03-22T11:32:39;18.80;48.10
33105;DHT22;19476;51.448;6.674;2024-03-22T11:35:10;18.70;48.20
33105;DHT22;19476;51.448;6.674;2024-03-22T11:37:38;18.70;48.30
33105;DHT22;19476;51.448;6.674;2024-03-22T11:40:04;18.60;48.50
33105;DHT22;19476;51.448;6.674;2024-03-22T11:42:33;18.60;48.70
33105;DHT22;19476;51.448;6.674;2024-03-22T11:44:59;18.60;48.60
33105;DHT22;19476;51.448;6.674;2024-03-22T11:47:25;18.50;48.70
33105;DHT22;19476;51.448;6.674;2024-03-22T11:49:51;18.40;48.80
33105;DHT22;19476;51.448;6.674;2024-03-22T11:52:17;18.50;48.90
33105;DHT22;19476;51.448;6.674;2024-03-22T11:54:43;18.40;48.90
33105;DHT22;19476;51.448;6.674;2024-03-22T11:57:15;18.40;49.30
33105;DHT22;19476;51.448;6.674;2024-03-22T11:59:41;18.30;49.10
33105;DHT22;19476;51.448;6.674;2024-03-22T12:02:08;18.30;49.20
33105;DHT22;19476;51.448;6.674;2024-03-22T12:04:35;18.30;49.30
33105;DHT22;19476;51.448;6.674;2024-03-22T12:07:01;18.30;49.40
33105;DHT22;19476;51.448;6.674;2024-03-22T12:09:26;18.30;49.50
33105;DHT22;19476;51.448;6.674;2024-03-22T12:11:55;18.30;49.50
33105;DHT22;19476;51.448;6.674;2024-03-22T12:14:20;18.30;49.70
33105;DHT22;19476;51.448;6.674;2024-03-22T12:16:46;18.30;49.80
33105;DHT22;19476;51.448;6.674;2024-03-22T12:19:12;18.30;49.80
33105;DHT22;19476;51.448;6.674;2024-03-22T12:21:38;18.30;50.30
33105;DHT22;19476;51.448;6.674;2024-03-22T12:24:04;18.20;50.50
33105;DHT22;19476;51.448;6.674;2024-03-22T12:26:30;18.20;50.60
33105;DHT22;19476;51.448;6.674;2024-03-22T12:28:57;18.20;50.70
33105;DHT22;19476;51.448;6.674;2024-03-22T12:31:23;18.10;50.80
33105;DHT22;19476;51.448;6.674;2024-03-22T12:33:49;18.00;50.80
33105;DHT22;19476;51.448;6.674;2024-03-22T12:36:15;18.00;50.90
33105;DHT22;19476;51.448;6.674;2024-03-22T12:38:40;17.90;50.90
33105;DHT22;19476;51.448;6.674;2024-03-22T12:41:07;17.80;51.00
33105;DHT22;19476;51.448;6.674;2024-03-22T12:43:32;17.80;51.00
33105;DHT22;19476;51.448;6.674;2024-03-22T12:45:59;17.80;51.10
33105;DHT22;19476;51.448;6.674;2024-03-22T12:48:25;17.80;51.90
33105;DHT22;19476;51.448;6.674;2024-03-22T12:50:51;17.80;51.60
33105;DHT22;19476;51.448;6.674;2024-03-22T12:53:16;17.80;51.60
33105;DHT22;19476;51.448;6.674;2024-03-22T12:55:42;17.80;51.40
33105;DHT22;19476;51.448;6.674;2024-03-22T12:58:08;17.90;51.40
33105;DHT22;19476;51.448;6.674;2024-03-22T13:00:33;17.90;51.30
33105;DHT22;19476;51.448;6.674;2024-03-22T13:02:59;17.90;51.20
33105;DHT22;19476;51.448;6.674;2024-03-22T13:05:26;17.90;51.10
33105;DHT22;19476;51.448;6.674;2024-03-22T13:07:52;17.90;51.00
33105;DHT22;19476;51.448;6.674;2024-03-22T13:10:19;17.90;51.00
33105;DHT22;19476;51.448;6.674;2024-03-22T13:12:44;17.90;51.10
33105;DHT22;19476;51.448;6.674;2024-03-22T13:15:11;17.90;51.10
33105;DHT22;19476;51.448;6.674;2024-03-22T13:17:37;17.90;51.00
33105;DHT22;19476;51.448;6.674;2024-03-22T13:20:03;17.90;51.10
33105;DHT22;19476;51.448;6.674;2024-03-22T13:22:37;17.90;51.60
33105;DHT22;19476;51.448;6.674;2024-03-22T13:25:03;17.90;51.10
33105;DHT22;19476;51.448;6.674;2024-03-22T13:27:32;17.80;51.10
33105;DHT22;19476;51.448;6.674;2024-03-22T13:29:59;17.80;51.10
33105;DHT22;19476;51.448;6.674;2024-03-22T13:32:25;17.80;51.20
33105;DHT22;19476;51.448;6.674;2024-03-22T13:34:51;17.70;51.20
33105;DHT22;19476;51.448;6.674;2024-03-22T13:37:17;17.70;51.20
33105;DHT22;19476;51.448;6.674;2024-03-22T13:39:42;17.70;51.30
33105;DHT22;19476;51.448;6.674;2024-03-22T13:42:08;17.70;51.60
33105;DHT22;19476;51.448;6.674;2024-03-22T13:44:34;17.70;51.40
33105;DHT22;19476;51.448;6.674;2024-03-22T13:47:00;17.70;51.40
33105;DHT22;19476;51.448;6.674;2024-03-22T13:49:26;17.70;51.50
33105;DHT22;19476;51.448;6.674;2024-03-22T13:51:52;17.60;51.50
33105;DHT22;19476;51.448;6.674;2024-03-22T13:54:17;17.60;51.60
33105;DHT22;19476;51.448;6.674;2024-03-22T13:56:43;17.60;51.70
33105;DHT22;19476;51.448;6.674;2024-03-22T13:59:09;17.60;51.70
33105;DHT22;19476;51.448;6.674;2024-03-22T14:01:36;17.60;51.70
33105;DHT22;19476;51.448;6.674;2024-03-22T14:04:03;17.60;51.80
33105;DHT22;19476;51.448;6.674;2024-03-22T14:06:30;17.50;51.80
33105;DHT22;19476;51.448;6.674;2024-03-22T14:08:56;17.50;51.80
33105;DHT22;19476;51.448;6.674;2024-03-22T14:11:26;17.50;51.90
33105;DHT22;19476;51.448;6.674;2024-03-22T14:13:52;17.50;52.10
33105;DHT22;19476;51.448;6.674;2024-03-22T14:16:17;17.40;51.90
33105;DHT22;19476;51.448;6.674;2024-03-22T14:18:43;17.40;52.00
33105;DHT22;19476;51.448;6.674;2024-03-22T14:21:09;17.40;52.30
33105;DHT22;19476;51.448;6.674;2024-03-22T14:23:37;17.30;52.40
33105;DHT22;19476;51.448;6.674;2024-03-22T14:26:02;17.30;52.60
33105;DHT22;19476;51.448;6.674;2024-03-22T14:28:28;17.20;52.70
33105;DHT22;19476;51.448;6.674;2024-03-22T14:30:54;17.20;52.90
33105;DHT22;19476;51.448;6.674;2024-03-22T14:33:19;17.10;53.00
33105;DHT22;19476;51.448;6.674;2024-03-22T14:35:45;17.10;53.10
33105;DHT22;19476;51.448;6.674;2024-03-22T14:38:12;17.00;53.30
33105;DHT22;19476;51.448;6.674;2024-03-22T14:40:38;17.00;53.40
33105;DHT22;19476;51.448;6.674;2024-03-22T14:43:04;17.00;53.60
33105;DHT22;19476;51.448;6.674;2024-03-22T14:45:30;17.00;53.70
33105;DHT22;19476;51.448;6.674;2024-03-22T14:47:56;17.00;53.70
33105;DHT22;19476;51.448;6.674;2024-03-22T14:50:22;16.90;53.80
33105;DHT22;19476;51.448;6.674;2024-03-22T14:52:49;16.90;54.00
33105;DHT22;19476;51.448;6.674;2024-03-22T14:55:15;16.90;54.20
33105;DHT22;19476;51.448;6.674;2024-03-22T14:57:41;16.80;54.20
33105;DHT22;19476;51.448;6.674;2024-03-22T15:00:08;16.90;54.60
33105;DHT22;19476;51.448;6.674;2024-03-22T15:02:36;16.90;54.70
33105;DHT22;19476;51.448;6.674;2024-03-22T15:05:02;16.90;54.90
33105;DHT22;19476;51.448;6.674;2024-03-22T15:07:30;16.90;54.90
33105;DHT22;19476;51.448;6.674;2024-03-22T15:13:05;16.90;56.10
33105;DHT22;19476;51.448;6.674;2024-03-22T15:15:35;16.80;55.30
33105;DHT22;19476;51.448;6.674;2024-03-22T15:18:00;16.80;55.60
33105;DHT22;19476;51.448;6.674;2024-03-22T15:20:27;16.80;55.70
33105;DHT22;19476;51.448;6.674;2024-03-22T15:22:53;16.80;55.80
33105;DHT22;19476;51.448;6.674;2024-03-22T15:25:19;16.80;56.00
33105;DHT22;19476;51.448;6.674;2024-03-22T15:27:45;16.80;56.10
33105;DHT22;19476;51.448;6.674;2024-03-22T15:30:11;16.80;56.10